Time;durP1;ratioP1;P1;durP2;ratioP2;P2;SDS_P1;SDS_P2;PMS_P1;PMS_P2;Temp;Humidity;BMP_temperature;BMP_pressure;BME280_temperature;BME280_humidity;BME280_pressure;Samples;Min_cycle;Max_cycle;Signal;HPM_P1;HPM_P2
2022/04/06 00:00:12;;;;;;;10.43;4.40;;;;;;;7.38;51.44;93536.41;5101743;28;20020;-77
2022/04/06 00:02:39;;;;;;;12.98;4.90;;;;;;;7.39;51.71;93540.63;5102445;28;20375;-76
2022/04/06 00:05:09;;;;;;;12.60;4.95;;;;;;;7.32;51.30;93536.84;5102736;28;20026;-76
2022/04/06 00:07:35;;;;;;;9.50;4.68;;;;;;;7.31;51.64;93541.34;5102666;28;20027;-76
2022/04/06 00:10:00;;;;;;;9.88;4.15;;;;;;;7.34;51.15;93537.31;5102390;28;20030;-76
2022/04/06 00:12:26;;;;;;;14.20;4.45;;;;;;;7.30;50.91;93539.00;5102730;28;20317;-76
2022/04/06 00:14:52;;;;;;;11.02;4.30;;;;;;;7.27;51.33;93535.09;5101449;28;20371;-75
2022/04/06 00:17:17;;;;;;;13.98;4.82;;;;;;;7.21;52.18;93530.97;5102083;28;20187;-76
2022/04/06 00:19:43;;;;;;;14.32;5.18;;;;;;;7.21;51.57;93530.97;5102848;28;20047;-75
2022/04/06 00:22:08;;;;;;;13.38;5.70;;;;;;;7.20;51.50;93532.06;5101268;28;20024;-76
2022/04/06 00:24:34;;;;;;;9.57;5.03;;;;;;;7.17;51.54;93525.50;5102298;28;20051;-77
2022/04/06 00:26:59;;;;;;;11.73;4.32;;;;;;;7.17;52.38;93535.31;5104807;28;20024;-77
2022/04/06 00:29:25;;;;;;;11.07;4.85;;;;;;;7.14;52.05;93530.59;5106225;28;20073;-77
2022/04/06 00:31:50;;;;;;;9.45;4.63;;;;;;;7.15;51.35;93529.53;5106069;28;20245;-77
2022/04/06 00:34:16;;;;;;;9.75;4.45;;;;;;;7.12;51.50;93533.53;5106185;28;20047;-76
2022/04/06 00:36:42;;;;;;;9.95;4.35;;;;;;;7.09;51.82;93539.44;5106255;28;20076;-77
2022/04/06 00:39:08;;;;;;;8.20;4.50;;;;;;;7.08;51.86;93542.41;5105901;28;20096;-77
2022/04/06 00:41:33;;;;;;;15.70;6.20;;;;;;;7.02;52.08;93545.16;5106115;28;20028;-77
2022/04/06 00:44:15;;;;;;;12.80;5.22;;;;;;;6.97;52.01;93544.50;5105940;28;20321;-77
2022/04/06 00:46:42;;;;;;;10.63;5.50;;;;;;;6.91;51.98;93554.41;5106430;28;20095;-78
2022/04/06 00:49:11;;;;;;;10.85;5.35;;;;;;;6.83;52.46;93545.28;5105865;28;20328;-77
2022/04/06 00:51:42;;;;;;;7.22;4.88;;;;;;;6.83;52.35;93552.44;5105801;28;20085;-77
2022/04/06 00:54:08;;;;;;;11.60;5.43;;;;;;;6.86;52.84;93556.38;5105713;28;20020;-78
2022/04/06 00:56:34;;;;;;;5.38;3.60;;;;;;;6.86;52.76;93546.56;5105710;28;20078;-78
2022/04/06 00:58:59;;;;;;;14.13;5.68;;;;;;;6.89;52.90;93553.91;5105598;28;20028;-77
2022/04/06 01:01:25;;;;;;;9.55;4.55;;;;;;;6.89;52.91;93556.56;5105504;28;20191;-78
2022/04/06 01:03:50;;;;;;;9.70;4.93;;;;;;;6.90;52.71;93550.19;5105647;28;20024;-77
2022/04/06 01:06:16;;;;;;;10.88;4.53;;;;;;;6.95;52.63;93549.28;5105513;28;20306;-77
2022/04/06 01:08:41;;;;;;;9.27;5.00;;;;;;;6.94;52.86;93551.16;5105671;28;20329;-78
2022/04/06 01:11:07;;;;;;;9.18;4.47;;;;;;;6.85;53.25;93542.34;5105615;28;20024;-77
2022/04/06 01:13:32;;;;;;;15.68;4.72;;;;;;;6.84;53.18;93548.75;5105190;28;20069;-76
2022/04/06 01:15:58;;;;;;;8.63;4.88;;;;;;;6.84;52.71;93548.75;5105326;28;20157;-78
2022/04/06 01:18:23;;;;;;;12.90;4.38;;;;;;;6.84;52.63;93551.38;5105319;28;20028;-77
2022/04/06 01:20:48;;;;;;;17.77;4.45;;;;;;;6.83;53.06;93552.44;5105269;28;20245;-77
2022/04/06 01:23:14;;;;;;;10.45;4.85;;;;;;;6.84;52.85;93551.38;5105249;28;20020;-77
2022/04/06 01:25:40;;;;;;;9.73;4.35;;;;;;;6.80;52.45;93559.13;5105259;28;20027;-77
2022/04/06 01:28:07;;;;;;;11.30;4.40;;;;;;;6.76;52.42;93541.50;5105080;28;20016;-77
2022/04/06 01:30:32;;;;;;;8.50;4.05;;;;;;;6.77;52.36;93543.03;5105174;28;20016;-78
2022/04/06 01:32:58;;;;;;;11.95;4.70;;;;;;;6.72;53.20;93543.16;5104928;28;20015;-78
2022/04/06 01:35:24;;;;;;;7.95;3.42;;;;;;;6.72;53.00;93545.81;5105079;28;20070;-77
2022/04/06 01:37:50;;;;;;;7.18;4.45;;;;;;;6.67;53.07;93545.91;5103673;28;20047;-77
2022/04/06 01:40:16;;;;;;;10.60;4.30;;;;;;;6.60;52.79;93541.00;5105194;28;20104;-77
2022/04/06 01:42:42;;;;;;;8.85;4.30;;;;;;;6.56;53.42;93538.16;5105134;28;20362;-78
2022/04/06 01:45:08;;;;;;;6.97;4.32;;;;;;;6.50;53.64;93539.34;5105065;28;20024;-77
2022/04/06 01:47:34;;;;;;;9.88;4.13;;;;;;;6.38;53.67;93539.03;5104998;28;20019;-76
2022/04/06 01:52:43;;;;;;;9.65;4.45;;;;;;;6.37;54.26;93546.22;5104926;28;20050;-77
2022/04/06 01:55:11;;;;;;;12.15;4.70;;;;;;;6.25;54.18;93553.03;5104480;28;20044;-77
2022/04/06 01:57:37;;;;;;;7.63;4.00;;;;;;;6.31;54.33;93554.50;5104439;28;20202;-77
2022/04/06 02:00:19;;;;;;;13.20;4.72;;;;;;;6.28;54.32;93542.66;5104626;28;20023;-76
2022/04/06 02:02:48;;;;;;;12.68;4.78;;;;;;;6.22;54.31;93554.41;5104552;28;20329;-77
2022/04/06 02:05:17;;;;;;;12.45;4.65;;;;;;;6.09;54.61;93549.91;5104717;28;20055;-77
2022/04/06 02:07:46;;;;;;;7.30;4.07;;;;;;;6.08;54.70;93553.63;5103441;28;20027;-76
2022/04/06 02:10:13;;;;;;;11.70;5.15;;;;;;;6.13;54.65;93550.91;5104618;28;20051;-76
2022/04/06 02:12:39;;;;;;;9.70;5.00;;;;;;;6.04;54.58;93550.75;5104638;28;20024;-76
2022/04/06 02:15:06;;;;;;;14.40;6.32;;;;;;;6.08;54.54;93561.56;5104344;28;20032;-76
2022/04/06 02:17:32;;;;;;;11.65;5.30;;;;;;;6.03;54.63;93562.44;5104134;28;20043;-76
2022/04/06 02:20:00;;;;;;;11.93;5.80;;;;;;;6.07;54.75;93558.13;5104156;28;20023;-77
2022/04/06 02:22:25;;;;;;;13.23;7.10;;;;;;;6.00;54.61;93563.00;5102773;28;20321;-77
2022/04/06 02:24:51;;;;;;;15.50;7.10;;;;;;;6.01;54.47;93556.66;5104217;28;20039;-76
2022/04/06 02:27:17;;;;;;;14.68;6.35;;;;;;;5.97;54.09;93559.09;5104094;28;20267;-76
2022/04/06 02:29:42;;;;;;;17.38;7.53;;;;;;;6.00;54.07;93557.72;5104259;28;20066;-76
2022/04/06 02:32:08;;;;;;;25.90;6.72;;;;;;;6.00;54.11;93558.53;5102707;28;20062;-77
2022/04/06 02:34:34;;;;;;;14.40;5.65;;;;;;;5.97;53.68;93564.38;5103972;28;20027;-76
2022/04/06 02:37:00;;;;;;;11.30;5.53;;;;;;;5.96;53.69;93560.19;5103963;28;20498;-77
2022/04/06 02:39:26;;;;;;;14.90;6.57;;;;;;;5.96;54.01;93560.19;5103725;28;20024;-77
2022/04/06 02:41:51;;;;;;;13.30;5.43;;;;;;;5.88;54.39;93560.78;5103863;28;20030;-77
2022/04/06 02:44:17;;;;;;;13.15;5.97;;;;;;;5.88;54.59;93575.88;5103661;28;20137;-76
2022/04/06 02:46:44;;;;;;;10.13;5.05;;;;;;;5.86;54.85;93567.44;5103808;28;20108;-77
2022/04/06 02:49:09;;;;;;;7.18;4.35;;;;;;;5.87;54.94;93579.63;5103169;28;20012;-77
2022/04/06 02:51:35;;;;;;;9.32;5.60;;;;;;;5.83;54.99;93569.59;5103439;28;20020;-76
2022/04/06 02:54:00;;;;;;;12.07;5.30;;;;;;;5.76;55.13;93574.50;5103422;28;20015;-76
2022/04/06 02:56:27;;;;;;;14.15;5.60;;;;;;;5.78;55.14;93572.34;5103360;28;20039;-77
2022/04/06 02:58:53;;;;;;;13.02;5.57;;;;;;;5.79;55.23;93576.53;5103513;28;20020;-76
2022/04/06 03:01:20;;;;;;;14.30;5.50;;;;;;;5.81;54.63;93577.03;5103497;28;20020;-77
2022/04/06 03:03:45;;;;;;;9.63;4.47;;;;;;;5.80;54.94;93579.97;5103289;28;20023;-76
2022/04/06 03:06:11;;;;;;;11.63;4.88;;;;;;;5.78;55.20;93588.22;5103394;28;20016;-77
2022/04/06 03:08:36;;;;;;;11.30;5.45;;;;;;;5.73;55.65;93585.63;5103263;28;20248;-77
2022/04/06 03:11:02;;;;;;;17.92;5.30;;;;;;;5.72;55.86;93588.56;5103256;28;20031;-77
2022/04/06 03:13:27;;;;;;;13.48;5.47;;;;;;;5.73;56.11;93588.28;5103232;28;20024;-77
2022/04/06 03:15:52;;;;;;;6.85;4.45;;;;;;;5.71;56.16;93587.00;5103087;28;20136;-76
2022/04/06 03:18:18;;;;;;;16.58;5.18;;;;;;;5.68;56.37;93592.84;5103194;28;20222;-76
2022/04/06 03:20:43;;;;;;;23.52;11.27;;;;;;;5.67;56.45;93591.28;5103252;28;20024;-77
2022/04/06 03:23:09;;;;;;;36.38;16.17;;;;;;;5.61;56.73;93594.00;5103006;28;20094;-79
2022/04/06 03:25:35;;;;;;;42.08;19.20;;;;;;;5.54;57.03;93592.81;5103055;28;20036;-76
2022/04/06 03:28:01;;;;;;;51.15;23.80;;;;;;;5.59;56.91;93592.72;5103268;28;20366;-81
2022/04/06 03:30:26;;;;;;;46.92;23.88;;;;;;;5.57;57.12;93590.38;5103333;28;20095;-78
2022/04/06 03:32:52;;;;;;;48.72;23.55;;;;;;;5.55;57.18;93589.09;5103231;28;20035;-83
2022/04/06 03:35:17;;;;;;;36.78;19.85;;;;;;;5.52;57.31;93598.38;5103066;28;20055;-82
2022/04/06 03:37:43;;;;;;;30.38;14.27;;;;;;;5.47;57.23;93595.03;5103116;28;20073;-77
2022/04/06 03:40:09;;;;;;;20.77;11.13;;;;;;;5.47;57.60;93595.81;5103842;28;20035;-86
2022/04/06 03:42:36;;;;;;;20.10;8.50;;;;;;;5.52;57.78;93605.53;5103689;28;20057;-89
2022/04/06 03:45:03;;;;;;;13.82;6.40;;;;;;;5.53;57.89;93604.47;5104294;28;20035;-89
2022/04/06 03:47:40;;;;;;;10.82;6.28;;;;;;;5.56;58.33;93602.03;5104416;28;20020;-90
2022/04/06 03:50:06;;;;;;;8.77;5.38;;;;;;;5.53;57.96;93593.88;5104419;28;20028;-88
2022/04/06 03:52:32;;;;;;;13.25;6.45;;;;;;;5.54;58.22;93590.97;5107440;28;20045;-94
2022/04/06 03:54:58;;;;;;;14.43;6.05;;;;;;;5.54;58.17;93603.41;5106279;28;20099;-84
2022/04/06 03:57:25;;;;;;;17.30;6.53;;;;;;;5.47;57.83;93601.09;5103622;28;20019;-93
2022/04/06 03:59:51;;;;;;;14.40;7.40;;;;;;;5.48;57.80;93610.63;5103734;28;20031;-89
2022/04/06 04:02:17;;;;;;;16.10;7.75;;;;;;;5.50;57.26;93616.41;5106692;28;20031;-83
2022/04/06 04:04:42;;;;;;;17.60;8.50;;;;;;;5.53;57.04;93615.81;5107167;28;20024;-87
2022/04/06 04:07:08;;;;;;;15.73;8.88;;;;;;;5.50;57.26;93616.41;5106969;28;20020;-88
2022/04/06 04:09:37;;;;;;;13.80;6.63;;;;;;;5.52;57.15;93630.13;5107276;28;20315;-90
2022/04/06 04:12:03;;;;;;;14.90;6.88;;;;;;;5.42;57.33;93638.97;5107043;28;20023;-86
2022/04/06 04:14:34;;;;;;;21.63;6.10;;;;;;;5.44;57.04;93630.75;5106917;28;20023;-87
2022/04/06 04:17:00;;;;;;;16.67;6.10;;;;;;;5.37;57.16;93636.41;5106846;28;20028;-88
2022/04/06 04:19:26;;;;;;;12.95;6.55;;;;;;;5.35;57.50;93629.81;5105677;28;20031;-87
2022/04/06 04:21:51;;;;;;;18.35;7.68;;;;;;;5.34;58.25;93630.91;5105748;28;20318;-88
2022/04/06 04:24:17;;;;;;;19.48;9.30;;;;;;;5.33;58.51;93624.84;5107146;28;20020;-93
2022/04/06 04:26:43;;;;;;;19.73;8.43;;;;;;;5.35;58.85;93632.47;5107067;28;20051;-89
2022/04/06 04:29:08;;;;;;;18.00;7.65;;;;;;;5.38;59.19;93643.25;5106778;28;20024;-84
2022/04/06 04:31:34;;;;;;;12.95;7.22;;;;;;;5.43;59.17;93635.25;5106871;28;20020;-90
2022/04/06 04:34:00;;;;;;;20.73;9.18;;;;;;;5.47;58.89;93642.59;5106370;28;20322;-88
2022/04/06 04:36:27;;;;;;;12.48;6.95;;;;;;;5.50;58.65;93644.69;5106391;28;20020;-83
2022/04/06 04:38:53;;;;;;;14.60;6.80;;;;;;;5.53;58.63;93644.09;5106033;28;20373;-71
2022/04/06 04:41:18;;;;;;;19.42;7.15;;;;;;;5.57;58.70;93648.53;5104155;28;20031;-71
2022/04/06 04:43:44;;;;;;;17.75;7.28;;;;;;;5.64;58.42;93658.78;5105701;28;20334;-71
2022/04/06 04:46:09;;;;;;;17.92;8.60;;;;;;;5.65;58.00;93655.03;5105704;28;20101;-71
2022/04/06 04:48:35;;;;;;;20.45;8.05;;;;;;;5.73;57.36;93654.38;5105806;28;20024;-71
2022/04/06 04:51:00;;;;;;;17.85;9.15;;;;;;;5.78;57.01;93662.25;5105747;28;20073;-71
2022/04/06 04:53:26;;;;;;;19.33;7.55;;;;;;;5.80;56.84;93665.41;5105536;28;20035;-71
2022/04/06 04:55:53;;;;;;;16.70;7.88;;;;;;;5.85;56.04;93664.53;5105194;28;20047;-71
2022/04/06 04:58:19;;;;;;;18.27;6.68;;;;;;;5.88;56.01;93666.59;5103810;28;20046;-71
2022/04/06 05:00:46;;;;;;;18.17;7.60;;;;;;;5.97;56.11;93677.34;5103632;28;20036;-71
2022/04/06 05:03:12;;;;;;;21.90;7.70;;;;;;;6.11;55.79;93674.78;5103780;28;20020;-71
2022/04/06 05:05:40;;;;;;;20.77;7.60;;;;;;;6.15;55.54;93678.41;5103685;28;20048;-71
2022/04/06 05:08:06;;;;;;;24.30;7.70;;;;;;;6.19;56.02;93688.13;5103778;28;20023;-71
2022/04/06 05:10:31;;;;;;;27.25;8.95;;;;;;;6.16;56.08;93699.25;5102413;28;20023;-71
2022/04/06 05:12:57;;;;;;;19.80;9.07;;;;;;;6.22;55.66;93703.41;5105032;28;20110;-71
2022/04/06 05:15:22;;;;;;;25.50;9.63;;;;;;;6.25;54.37;93702.06;5105237;28;20037;-71
2022/04/06 05:17:48;;;;;;;24.13;9.27;;;;;;;6.30;53.98;93698.53;5104949;28;20032;-71
2022/04/06 05:20:13;;;;;;;27.70;11.73;;;;;;;6.34;54.07;93707.47;5105129;28;20031;-71
2022/04/06 05:22:39;;;;;;;29.85;11.25;;;;;;;6.37;53.29;93709.53;5105138;28;20057;-72
2022/04/06 05:25:09;;;;;;;18.60;10.07;;;;;;;6.40;53.12;93714.25;5104860;28;20069;-71
2022/04/06 05:27:46;;;;;;;25.75;10.30;;;;;;;6.45;52.78;93708.88;5104902;28;20032;-71
2022/04/06 05:30:14;;;;;;;22.23;10.23;;;;;;;6.51;52.84;93712.22;5105017;28;20051;-71
2022/04/06 05:32:39;;;;;;;25.52;11.55;;;;;;;6.58;52.94;93699.41;5104927;28;20024;-71
2022/04/06 05:35:06;;;;;;;22.00;10.30;;;;;;;6.71;52.61;93708.44;5104963;28;20042;-71
2022/04/06 05:37:33;;;;;;;24.98;11.05;;;;;;;6.82;52.71;93704.53;5104710;28;20027;-71
2022/04/06 05:40:00;;;;;;;33.85;10.38;;;;;;;6.98;52.60;93705.03;5104555;28;20214;-71
2022/04/06 05:42:25;;;;;;;25.90;10.63;;;;;;;7.10;52.49;93713.28;5104680;28;20024;-70
2022/04/06 05:44:51;;;;;;;24.35;10.00;;;;;;;7.19;52.48;93714.16;5104580;28;20073;-71
2022/04/06 05:47:17;;;;;;;22.70;9.60;;;;;;;7.25;52.23;93714.09;5104595;28;20024;-71
2022/04/06 05:49:43;;;;;;;22.75;11.35;;;;;;;7.32;52.75;93719.75;5104662;28;20123;-70
2022/04/06 05:52:09;;;;;;;25.58;11.00;;;;;;;7.34;52.35;93713.06;5104356;28;20016;-71
2022/04/06 05:54:35;;;;;;;23.17;10.68;;;;;;;7.40;52.32;93719.06;5104242;28;20019;-71
2022/04/06 05:57:01;;;;;;;21.25;11.00;;;;;;;7.46;51.75;93728.50;5104197;28;20040;-70
2022/04/06 05:59:26;;;;;;;21.27;10.52;;;;;;;7.50;51.48;93731.34;5103001;28;20046;-71
2022/04/06 06:01:52;;;;;;;26.48;12.02;;;;;;;7.56;51.72;93730.94;5104286;28;20024;-71
2022/04/06 06:04:17;;;;;;;19.33;10.23;;;;;;;7.54;51.51;93730.44;5104221;28;20044;-71
2022/04/06 06:06:43;;;;;;;30.23;10.95;;;;;;;7.58;51.61;93731.44;5104386;28;20035;-71
2022/04/06 06:09:08;;;;;;;24.25;10.35;;;;;;;7.65;51.13;93736.31;5104057;28;20032;-71
2022/04/06 06:11:34;;;;;;;26.58;11.93;;;;;;;7.71;51.26;93729.81;5103872;28;20039;-71
2022/04/06 06:13:59;;;;;;;29.88;11.95;;;;;;;7.81;51.48;93732.25;5103784;28;20371;-71
2022/04/06 06:16:25;;;;;;;24.92;10.98;;;;;;;7.90;51.12;93731.59;5103991;28;20032;-70
2022/04/06 06:18:50;;;;;;;31.73;11.88;;;;;;;7.93;51.26;93731.75;5104068;28;20235;-71
2022/04/06 06:21:16;;;;;;;30.05;10.55;;;;;;;7.96;51.37;93735.69;5103819;28;20337;-72
2022/04/06 06:23:41;;;;;;;40.88;11.60;;;;;;;8.03;51.09;93738.72;5103248;28;20020;-72
2022/04/06 06:26:07;;;;;;;23.05;11.68;;;;;;;8.07;51.13;93737.03;5103940;28;20040;-70
2022/04/06 06:28:32;;;;;;;31.58;11.18;;;;;;;8.06;51.51;93729.34;5103804;28;20031;-70
2022/04/06 06:30:58;;;;;;;35.92;11.43;;;;;;;8.07;51.34;93736.25;5103587;28;20366;-71
2022/04/06 06:33:24;;;;;;;23.98;9.88;;;;;;;8.10;51.22;93731.13;5103752;28;20024;-71
2022/04/06 06:35:50;;;;;;;25.48;10.80;;;;;;;8.20;51.02;93730.91;5103680;28;20031;-73
2022/04/06 06:38:15;;;;;;;46.60;11.90;;;;;;;8.32;51.05;93722.38;5103729;28;20036;-71
2022/04/06 06:40:41;;;;;;;35.17;9.65;;;;;;;8.47;51.56;93721.28;5103678;28;20016;-71
2022/04/06 06:43:06;;;;;;;23.73;9.60;;;;;;;8.60;51.16;93724.94;5103522;28;20273;-71
2022/04/06 06:45:32;;;;;;;19.27;8.32;;;;;;;8.75;51.09;93718.44;5103549;28;20031;-71
2022/04/06 06:47:57;;;;;;;18.25;7.40;;;;;;;8.88;51.28;93732.78;5103215;28;20024;-71
2022/04/06 06:50:23;;;;;;;23.00;7.50;;;;;;;9.02;50.91;93720.94;5103422;28;20024;-71
2022/04/06 06:52:48;;;;;;;21.10;8.35;;;;;;;9.10;50.35;93715.97;5103574;28;20057;-71
2022/04/06 06:55:15;;;;;;;17.73;7.63;;;;;;;9.17;50.20;93719.75;5103048;28;20238;-71
2022/04/06 06:57:40;;;;;;;19.08;7.40;;;;;;;9.27;50.13;93718.69;5103187;28;20035;-71
2022/04/06 07:00:07;;;;;;;20.30;9.15;;;;;;;9.37;49.01;93717.66;5103237;28;20020;-71
2022/04/06 07:02:32;;;;;;;23.30;8.48;;;;;;;9.45;48.98;93722.19;5103272;28;20020;-71
2022/04/06 07:04:57;;;;;;;16.63;7.80;;;;;;;9.51;48.79;93717.53;5103058;28;20035;-70
2022/04/06 07:07:23;;;;;;;26.52;9.82;;;;;;;9.63;48.38;93715.06;5103251;28;20020;-72
2022/04/06 07:09:48;;;;;;;21.35;7.85;;;;;;;9.76;47.81;93716.78;5103199;28;20028;-71
2022/04/06 07:12:14;;;;;;;26.38;8.75;;;;;;;9.83;47.76;93724.31;5102819;28;20024;-71
2022/04/06 07:14:39;;;;;;;19.48;7.75;;;;;;;9.88;47.21;93716.19;5102801;28;20032;-71
2022/04/06 07:17:05;;;;;;;19.67;7.25;;;;;;;9.92;47.41;93719.00;5102851;28;20099;-71
2022/04/06 07:19:31;;;;;;;19.20;7.70;;;;;;;10.02;47.34;93729.34;5102934;28;20337;-71
2022/04/06 07:21:56;;;;;;;24.38;7.72;;;;;;;10.15;46.22;93724.97;5102821;28;20081;-72
2022/04/06 07:24:22;;;;;;;17.95;8.18;;;;;;;10.14;46.35;93728.75;5102787;28;20054;-72
2022/04/06 07:26:47;;;;;;;21.95;8.82;;;;;;;10.23;45.91;93730.28;5102960;28;20020;-71
2022/04/06 07:29:15;;;;;;;20.67;7.20;;;;;;;10.19;45.68;93726.69;5102537;28;20027;-72
2022/04/06 07:31:42;;;;;;;18.15;8.18;;;;;;;10.27;45.63;93735.00;5102894;28;20035;-72
2022/04/06 07:34:08;;;;;;;22.98;7.05;;;;;;;10.39;45.18;93729.84;5102882;28;20138;-72
2022/04/06 07:36:33;;;;;;;40.35;9.10;;;;;;;10.44;45.06;93732.34;5102485;28;20024;-72
2022/04/06 07:39:02;;;;;;;20.75;7.45;;;;;;;10.45;44.59;93728.59;5102655;28;20214;-71
2022/04/06 07:41:28;;;;;;;13.20;6.75;;;;;;;10.54;44.53;93725.91;5102707;28;20098;-71
2022/04/06 07:43:54;;;;;;;14.20;5.90;;;;;;;10.63;44.62;93735.47;5102647;28;20020;-71
2022/04/06 07:46:19;;;;;;;23.98;7.47;;;;;;;10.76;44.13;93724.94;5102792;28;20090;-71
2022/04/06 07:48:45;;;;;;;16.70;6.65;;;;;;;10.93;44.03;93722.25;5102519;28;20062;-72
2022/04/06 07:51:10;;;;;;;18.10;6.05;;;;;;;11.06;43.52;93715.16;5102611;28;20074;-71
2022/04/06 07:53:35;;;;;;;25.80;6.75;;;;;;;11.20;43.29;93722.94;5102491;28;20070;-72
2022/04/06 07:56:01;;;;;;;21.85;7.20;;;;;;;11.14;43.22;93721.56;5102594;28;20051;-72
2022/04/06 07:58:27;;;;;;;25.63;8.52;;;;;;;11.18;42.72;93730.50;5102492;28;20061;-71
2022/04/06 08:00:52;;;;;;;21.58;7.80;;;;;;;11.32;42.78;93723.06;5102286;28;20030;-71
2022/04/06 08:03:18;;;;;;;15.30;6.70;;;;;;;11.47;42.47;93723.63;5102653;28;20034;-72
2022/04/06 08:05:43;;;;;;;20.45;6.95;;;;;;;11.58;41.92;93716.81;5102286;28;20109;-72
2022/04/06 08:08:08;;;;;;;16.40;7.20;;;;;;;11.68;42.04;93712.97;5102301;28;20028;-71
2022/04/06 08:10:34;;;;;;;17.50;6.63;;;;;;;11.81;42.26;93717.31;5102411;28;20114;-72
2022/04/06 08:13:00;;;;;;;12.30;5.82;;;;;;;11.92;41.77;93723.84;5102529;28;20040;-72
2022/04/06 08:15:25;;;;;;;27.65;6.47;;;;;;;12.00;41.84;93719.56;5102275;28;20218;-71
2022/04/06 08:17:51;;;;;;;12.05;6.13;;;;;;;12.02;41.69;93720.03;5102311;28;20023;-71
2022/04/06 08:20:17;;;;;;;11.43;5.32;;;;;;;12.11;41.46;93715.41;5101320;28;20044;-71
2022/04/06 08:22:46;;;;;;;16.92;6.20;;;;;;;12.24;40.57;93719.72;5102248;28;20027;-71
2022/04/06 08:25:14;;;;;;;18.95;4.60;;;;;;;12.32;40.80;93714.63;5102221;28;20223;-71
2022/04/06 08:27:40;;;;;;;14.02;5.20;;;;;;;12.49;40.00;93719.03;5102109;28;20131;-72
2022/04/06 08:30:11;;;;;;;18.60;5.28;;;;;;;12.59;39.92;93713.28;5102304;28;20028;-72
2022/04/06 08:32:37;;;;;;;12.93;5.88;;;;;;;12.73;39.38;93716.47;5102152;28;20122;-71
2022/04/06 08:35:04;;;;;;;14.38;5.50;;;;;;;12.71;39.73;93710.66;5101812;28;20048;-71
2022/04/06 08:37:30;;;;;;;15.68;5.53;;;;;;;12.81;38.84;93720.16;5102137;28;20329;-70
2022/04/06 08:39:56;;;;;;;19.17;6.22;;;;;;;12.87;39.10;93718.84;5102089;28;20042;-72
2022/04/06 08:42:22;;;;;;;16.50;5.15;;;;;;;12.95;39.13;93704.59;5102214;28;20047;-70
2022/04/06 08:44:48;;;;;;;14.38;5.25;;;;;;;13.07;39.16;93711.88;5102284;28;20046;-71
2022/04/06 08:47:14;;;;;;;21.95;5.43;;;;;;;13.19;38.54;93709.22;5103087;28;20020;-71
2022/04/06 08:49:45;;;;;;;18.98;4.82;;;;;;;13.29;38.38;93707.19;5105535;28;20262;-72
2022/04/06 08:52:16;;;;;;;12.63;5.20;;;;;;;13.39;38.36;93706.78;5105633;28;20020;-72
2022/04/06 08:54:41;;;;;;;9.10;3.85;;;;;;;13.50;37.67;93702.56;5105537;28;20028;-72
2022/04/06 08:57:07;;;;;;;15.07;5.35;;;;;;;13.58;36.39;93707.03;5105580;28;20251;-72
2022/04/06 08:59:33;;;;;;;15.27;4.22;;;;;;;13.52;35.40;93700.34;5105525;28;20028;-72
2022/04/06 09:01:58;;;;;;;8.63;4.50;;;;;;;13.63;35.98;93697.97;5103965;28;20023;-72
2022/04/06 09:04:24;;;;;;;7.55;4.57;;;;;;;13.69;36.16;93695.88;5105010;28;20200;-71
2022/04/06 09:06:50;;;;;;;14.38;4.22;;;;;;;13.76;34.46;93696.88;5105726;28;20199;-71
2022/04/06 09:09:26;;;;;;;16.60;5.18;;;;;;;13.74;34.54;93695.63;5105284;28;20051;-72
2022/04/06 09:11:52;;;;;;;12.30;4.88;;;;;;;13.73;35.36;93689.50;5105261;28;20070;-71
2022/04/06 09:14:30;;;;;;;8.13;4.30;;;;;;;13.89;34.11;93694.19;5105154;28;20107;-70
2022/04/06 09:17:06;;;;;;;6.47;3.97;;;;;;;13.97;33.88;93691.38;5105204;28;20024;-70
2022/04/06 09:19:36;;;;;;;10.32;4.70;;;;;;;14.04;33.07;93693.47;5105086;28;20016;-71
2022/04/06 09:22:05;;;;;;;9.13;4.05;;;;;;;14.12;32.49;93686.41;5104943;28;20015;-71
2022/04/06 09:24:31;;;;;;;7.50;3.47;;;;;;;14.18;29.45;93687.75;5105045;28;20047;-71
2022/04/06 09:27:01;;;;;;;9.70;3.78;;;;;;;14.21;30.90;93671.00;5104836;28;20027;-70
2022/04/06 09:29:26;;;;;;;15.90;4.75;;;;;;;14.28;31.77;93670.41;5104900;28;20107;-71
2022/04/06 09:31:52;;;;;;;8.95;4.75;;;;;;;14.36;31.99;93672.16;5104973;28;20051;-71
2022/04/06 09:34:23;;;;;;;19.50;4.30;;;;;;;14.50;31.54;93664.50;5105016;28;20043;-71
2022/04/06 09:36:56;;;;;;;11.82;4.65;;;;;;;14.63;31.41;93671.41;5105156;28;20027;-72
2022/04/06 09:39:46;;;;;;;11.15;4.25;;;;;;;14.75;31.93;93662.50;5104878;28;20020;-72
2022/04/06 09:42:21;;;;;;;10.85;3.80;;;;;;;14.82;31.19;93659.25;5101419;28;20077;-72
2022/04/06 09:47:41;;;;;;;6.22;3.00;;;;;;;15.13;31.04;93645.06;5104773;28;20348;-71
2022/04/06 09:50:26;;;;;;;14.15;2.15;;;;;;;15.34;29.84;93650.16;5104362;28;20015;-72
2022/04/06 09:52:53;;;;;;;3.30;1.75;;;;;;;15.50;28.82;93642.09;5104650;28;20022;-73
2022/04/06 09:55:21;;;;;;;7.82;2.58;;;;;;;15.63;29.82;93645.44;5104579;28;20256;-73
2022/04/06 09:57:51;;;;;;;18.35;4.32;;;;;;;15.74;29.41;93638.44;5104377;28;20095;-73
2022/04/06 10:00:25;;;;;;;9.73;4.43;;;;;;;15.85;30.52;93633.28;5103690;28;20060;-73
2022/04/06 10:03:07;;;;;;;13.38;4.45;;;;;;;15.95;30.48;93637.34;5104268;28;20383;-77
2022/04/06 10:05:34;;;;;;;13.70;5.20;;;;;;;16.01;30.07;93628.63;5105602;28;20031;-83
2022/04/06 10:08:05;;;;;;;12.73;4.07;;;;;;;16.07;28.83;93620.31;5104397;28;20054;-84
2022/04/06 10:10:32;;;;;;;16.73;3.90;;;;;;;16.08;29.46;93624.53;5104643;28;20031;-81
2022/04/06 10:12:59;;;;;;;9.23;4.15;;;;;;;16.19;29.43;93618.25;5104567;28;20027;-77
2022/04/06 10:15:25;;;;;;;6.95;3.95;;;;;;;16.22;29.05;93611.38;5104844;28;20026;-87
2022/04/06 10:17:51;;;;;;;8.25;4.22;;;;;;;16.31;29.95;93620.03;5104498;28;20023;-78
2022/04/06 10:20:27;;;;;;;11.18;3.95;;;;;;;16.46;30.05;93615.69;5104626;28;20322;-80
2022/04/06 10:23:18;;;;;;;7.22;3.47;;;;;;;16.60;28.79;93610.56;5104516;28;20024;-81
2022/04/06 10:26:13;;;;;;;12.83;3.63;;;;;;;16.70;28.98;93603.06;5104362;28;20055;-85
2022/04/06 10:28:44;;;;;;;13.00;3.67;;;;;;;16.69;29.38;93598.78;5104137;28;20342;-82
2022/04/06 10:31:27;;;;;;;15.30;5.97;;;;;;;16.79;28.14;93595.50;5104150;28;20099;-82
2022/04/06 10:34:28;;;;;;;10.00;4.57;;;;;;;16.79;28.05;93595.50;5104187;28;20020;-78
2022/04/06 10:37:12;;;;;;;13.05;4.97;;;;;;;16.72;28.24;93593.47;5103897;28;20047;-75
2022/04/06 10:39:53;;;;;;;9.60;3.90;;;;;;;16.74;27.30;93598.50;5103479;28;20367;-75
2022/04/06 10:42:37;;;;;;;7.87;3.90;;;;;;;16.61;27.21;93581.75;5103897;28;20091;-76
2022/04/06 10:45:05;;;;;;;11.70;3.70;;;;;;;16.55;27.56;93573.22;5103714;28;20368;-75
2022/04/06 10:47:32;;;;;;;9.77;4.50;;;;;;;16.57;28.13;93570.16;5103647;28;20283;-75
2022/04/06 10:50:15;;;;;;;9.90;3.97;;;;;;;16.60;27.59;93574.81;5103408;28;20051;-75
2022/04/06 10:52:42;;;;;;;8.10;3.90;;;;;;;16.60;28.58;93574.81;5102679;28;20035;-85
2022/04/06 10:55:09;;;;;;;16.05;4.18;;;;;;;16.68;29.27;93563.03;5103546;28;20097;-82
2022/04/06 10:57:57;;;;;;;13.20;4.85;;;;;;;16.89;27.70;93557.25;5103724;28;20195;-82
2022/04/06 11:00:24;;;;;;;6.85;3.78;;;;;;;16.88;27.86;93566.47;5103728;28;20044;-83
2022/04/06 11:02:50;;;;;;;12.00;3.70;;;;;;;16.96;27.44;93560.06;5103529;28;20020;-83
2022/04/06 11:05:44;;;;;;;11.05;3.10;;;;;;;17.08;27.15;93556.41;5103379;28;20016;-81
2022/04/06 11:11:35;;;;;;;7.05;3.38;;;;;;;17.16;28.20;93549.25;5102947;28;20077;-81
2022/04/06 11:14:01;;;;;;;6.13;3.22;;;;;;;17.32;28.41;93549.06;5103495;28;20031;-79
2022/04/06 11:16:46;;;;;;;7.97;3.30;;;;;;;17.38;28.47;93548.41;5103329;28;20074;-81
2022/04/06 11:19:15;;;;;;;8.63;3.63;;;;;;;17.55;28.62;93551.72;5103348;28;20251;-84
2022/04/06 11:21:54;;;;;;;12.27;3.65;;;;;;;17.72;28.64;93539.59;5103366;28;20020;-81
2022/04/06 11:24:28;;;;;;;10.40;3.75;;;;;;;18.00;27.62;93539.22;5103530;28;20047;-85
2022/04/06 11:26:54;;;;;;;9.35;2.95;;;;;;;18.15;26.39;93532.81;5104638;28;20062;-78
2022/04/06 11:29:35;;;;;;;13.55;3.45;;;;;;;18.30;26.10;93527.56;5102979;28;20318;-81
2022/04/06 11:32:06;;;;;;;8.25;3.65;;;;;;;18.45;26.70;93529.28;5105454;28;20024;-86
2022/04/06 11:34:41;;;;;;;12.02;3.08;;;;;;;18.60;26.49;93522.91;5104506;28;20096;-86
2022/04/06 11:37:09;;;;;;;7.30;2.53;;;;;;;18.76;26.21;93519.94;5103497;28;20052;-80
2022/04/06 11:39:36;;;;;;;11.55;3.53;;;;;;;18.95;26.22;93518.16;5103317;28;20024;-76
2022/04/06 11:42:03;;;;;;;11.20;4.00;;;;;;;19.02;26.35;93513.59;5102922;28;20091;-76